sensor_id;sensor_type;location;lat;lon;timestamp;temperature;humidity
10572;DHT22;5334;48.928;12.704;2023-11-21T00:02:17;7.50;99.90
10572;DHT22;5334;48.928;12.704;2023-11-21T00:05:01;7.50;99.90
10572;DHT22;5334;48.928;12.704;2023-11-21T00:07:45;7.50;99.90
10572;DHT22;5334;48.928;12.704;2023-11-21T00:10:29;7.50;99.90
10572;DHT22;5334;48.928;12.704;2023-11-21T00:13:13;7.50;99.90
10572;DHT22;5334;48.928;12.704;2023-11-21T00:15:57;7.50;99.90
10572;DHT22;5334;48.928;12.704;2023-11-21T00:18:41;7.50;99.90
10572;DHT22;5334;48.928;12.704;2023-11-21T00:21:26;7.40;99.90
10572;DHT22;5334;48.928;12.704;2023-11-21T00:24:11;7.40;99.90
10572;DHT22;5334;48.928;12.704;2023-11-21T00:26:56;7.40;99.90
10572;DHT22;5334;48.928;12.704;2023-11-21T00:29:40;7.40;99.90
10572;DHT22;5334;48.928;12.704;2023-11-21T00:32:24;7.40;99.90
10572;DHT22;5334;48.928;12.704;2023-11-21T00:35:09;7.30;99.90
10572;DHT22;5334;48.928;12.704;2023-11-21T00:37:53;7.30;99.90
10572;DHT22;5334;48.928;12.704;2023-11-21T00:40:37;7.20;99.90
10572;DHT22;5334;48.928;12.704;2023-11-21T00:43:22;7.10;99.90
10572;DHT22;5334;48.928;12.704;2023-11-21T00:46:07;7.10;99.90
10572;DHT22;5334;48.928;12.704;2023-11-21T00:48:51;7.00;99.90
10572;DHT22;5334;48.928;12.704;2023-11-21T00:51:35;7.00;99.90
10572;DHT22;5334;48.928;12.704;2023-11-21T00:54:19;7.10;99.90
10572;DHT22;5334;48.928;12.704;2023-11-21T00:57:03;7.10;99.90
10572;DHT22;5334;48.928;12.704;2023-11-21T00:59:47;7.10;99.90
10572;DHT22;5334;48.928;12.704;2023-11-21T01:02:31;7.10;99.90
10572;DHT22;5334;48.928;12.704;2023-11-21T01:05:15;7.10;99.90
10572;DHT22;5334;48.928;12.704;2023-11-21T01:08:00;7.10;99.90
10572;DHT22;5334;48.928;12.704;2023-11-21T01:10:44;7.20;99.90
10572;DHT22;5334;48.928;12.704;2023-11-21T01:13:28;7.20;99.90
10572;DHT22;5334;48.928;12.704;2023-11-21T01:16:12;7.20;99.90
10572;DHT22;5334;48.928;12.704;2023-11-21T01:18:56;7.10;99.90
10572;DHT22;5334;48.928;12.704;2023-11-21T01:21:40;7.00;99.90
10572;DHT22;5334;48.928;12.704;2023-11-21T01:24:24;7.00;99.90
10572;DHT22;5334;48.928;12.704;2023-11-21T01:27:08;7.00;99.90
10572;DHT22;5334;48.928;12.704;2023-11-21T01:29:52;7.00;99.90
10572;DHT22;5334;48.928;12.704;2023-11-21T01:32:37;6.90;99.90
10572;DHT22;5334;48.928;12.704;2023-11-21T01:35:21;6.90;99.90
10572;DHT22;5334;48.928;12.704;2023-11-21T01:38:05;7.00;99.90
10572;DHT22;5334;48.928;12.704;2023-11-21T01:40:49;7.00;99.90
10572;DHT22;5334;48.928;12.704;2023-11-21T01:43:33;7.00;99.90
10572;DHT22;5334;48.928;12.704;2023-11-21T01:46:17;7.00;99.90
10572;DHT22;5334;48.928;12.704;2023-11-21T01:49:01;6.90;99.90
10572;DHT22;5334;48.928;12.704;2023-11-21T01:51:48;7.00;99.90
10572;DHT22;5334;48.928;12.704;2023-11-21T02:01:17;7.00;99.90
10572;DHT22;5334;48.928;12.704;2023-11-21T02:04:01;7.00;99.90
10572;DHT22;5334;48.928;12.704;2023-11-21T02:06:46;7.00;99.90
10572;DHT22;5334;48.928;12.704;2023-11-21T02:09:31;7.00;99.90
10572;DHT22;5334;48.928;12.704;2023-11-21T02:12:15;7.00;99.90
10572;DHT22;5334;48.928;12.704;2023-11-21T02:14:59;7.00;99.90
10572;DHT22;5334;48.928;12.704;2023-11-21T02:17:44;7.00;99.90
10572;DHT22;5334;48.928;12.704;2023-11-21T02:20:28;7.00;99.90
10572;DHT22;5334;48.928;12.704;2023-11-21T02:23:12;6.90;99.90
10572;DHT22;5334;48.928;12.704;2023-11-21T02:25:56;6.90;99.90
10572;DHT22;5334;48.928;12.704;2023-11-21T02:28:40;6.90;99.90
10572;DHT22;5334;48.928;12.704;2023-11-21T02:31:24;6.90;99.90
10572;DHT22;5334;48.928;12.704;2023-11-21T02:34:09;6.90;99.90
10572;DHT22;5334;48.928;12.704;2023-11-21T02:36:53;6.90;99.90
10572;DHT22;5334;48.928;12.704;2023-11-21T02:39:37;6.90;99.90
10572;DHT22;5334;48.928;12.704;2023-11-21T02:42:21;6.90;99.90
10572;DHT22;5334;48.928;12.704;2023-11-21T02:45:07;6.80;99.90
10572;DHT22;5334;48.928;12.704;2023-11-21T02:47:51;6.80;99.90
10572;DHT22;5334;48.928;12.704;2023-11-21T02:50:35;6.80;99.90
10572;DHT22;5334;48.928;12.704;2023-11-21T02:53:19;6.80;99.90
10572;DHT22;5334;48.928;12.704;2023-11-21T02:56:04;6.80;99.90
10572;DHT22;5334;48.928;12.704;2023-11-21T02:58:48;6.80;99.90
10572;DHT22;5334;48.928;12.704;2023-11-21T03:01:33;6.80;99.90
10572;DHT22;5334;48.928;12.704;2023-11-21T03:04:17;6.90;99.90
10572;DHT22;5334;48.928;12.704;2023-11-21T03:07:01;6.90;99.90
10572;DHT22;5334;48.928;12.704;2023-11-21T03:09:46;6.90;99.90
10572;DHT22;5334;48.928;12.704;2023-11-21T03:12:30;6.90;99.90
10572;DHT22;5334;48.928;12.704;2023-11-21T03:15:15;6.90;99.90
10572;DHT22;5334;48.928;12.704;2023-11-21T03:17:59;6.90;99.90
10572;DHT22;5334;48.928;12.704;2023-11-21T03:20:46;6.90;99.90
10572;DHT22;5334;48.928;12.704;2023-11-21T03:23:30;6.90;99.90
10572;DHT22;5334;48.928;12.704;2023-11-21T03:26:15;6.80;99.90
10572;DHT22;5334;48.928;12.704;2023-11-21T03:28:58;6.80;99.90
10572;DHT22;5334;48.928;12.704;2023-11-21T03:31:43;6.70;99.90
10572;DHT22;5334;48.928;12.704;2023-11-21T03:34:28;6.70;99.90
10572;DHT22;5334;48.928;12.704;2023-11-21T03:37:12;6.80;99.90
10572;DHT22;5334;48.928;12.704;2023-11-21T03:39:56;6.80;99.90
10572;DHT22;5334;48.928;12.704;2023-11-21T03:42:40;6.80;99.90
10572;DHT22;5334;48.928;12.704;2023-11-21T03:45:24;6.80;99.90
10572;DHT22;5334;48.928;12.704;2023-11-21T03:48:08;6.80;99.90
10572;DHT22;5334;48.928;12.704;2023-11-21T03:50:52;6.70;99.90
10572;DHT22;5334;48.928;12.704;2023-11-21T03:53:37;6.70;99.90
10572;DHT22;5334;48.928;12.704;2023-11-21T03:56:21;6.70;99.90
10572;DHT22;5334;48.928;12.704;2023-11-21T03:59:05;6.70;99.90
10572;DHT22;5334;48.928;12.704;2023-11-21T04:01:49;6.60;99.90
10572;DHT22;5334;48.928;12.704;2023-11-21T04:04:33;6.60;99.90
10572;DHT22;5334;48.928;12.704;2023-11-21T04:07:17;6.50;99.90
10572;DHT22;5334;48.928;12.704;2023-11-21T04:10:02;6.50;99.90
10572;DHT22;5334;48.928;12.704;2023-11-21T04:12:46;6.60;99.90
10572;DHT22;5334;48.928;12.704;2023-11-21T04:15:30;6.60;99.90
10572;DHT22;5334;48.928;12.704;2023-11-21T04:18:14;6.70;99.90
10572;DHT22;5334;48.928;12.704;2023-11-21T04:20:58;6.70;99.90
10572;DHT22;5334;48.928;12.704;2023-11-21T04:23:42;6.70;99.90
10572;DHT22;5334;48.928;12.704;2023-11-21T04:26:26;6.70;99.90
10572;DHT22;5334;48.928;12.704;2023-11-21T04:29:10;6.70;99.90
10572;DHT22;5334;48.928;12.704;2023-11-21T04:31:54;6.70;99.90
10572;DHT22;5334;48.928;12.704;2023-11-21T04:34:38;6.70;99.90
10572;DHT22;5334;48.928;12.704;2023-11-21T04:37:22;6.60;99.90
10572;DHT22;5334;48.928;12.704;2023-11-21T04:40:07;6.60;99.90
10572;DHT22;5334;48.928;12.704;2023-11-21T04:42:51;6.70;99.90
10572;DHT22;5334;48.928;12.704;2023-11-21T04:45:36;6.70;99.90
10572;DHT22;5334;48.928;12.704;2023-11-21T04:48:20;6.70;99.90
10572;DHT22;5334;48.928;12.704;2023-11-21T04:51:04;6.70;99.90
10572;DHT22;5334;48.928;12.704;2023-11-21T04:53:48;6.60;99.90
10572;DHT22;5334;48.928;12.704;2023-11-21T04:56:32;6.60;99.90
10572;DHT22;5334;48.928;12.704;2023-11-21T04:59:16;6.60;99.90
10572;DHT22;5334;48.928;12.704;2023-11-21T05:02:00;6.50;99.90
10572;DHT22;5334;48.928;12.704;2023-11-21T05:04:45;6.50;99.90
10572;DHT22;5334;48.928;12.704;2023-11-21T05:07:29;6.40;99.90
10572;DHT22;5334;48.928;12.704;2023-11-21T05:10:13;6.40;99.90
10572;DHT22;5334;48.928;12.704;2023-11-21T05:12:57;6.40;99.90
10572;DHT22;5334;48.928;12.704;2023-11-21T05:15:41;6.30;99.90
10572;DHT22;5334;48.928;12.704;2023-11-21T05:18:26;6.30;99.90
10572;DHT22;5334;48.928;12.704;2023-11-21T05:21:10;6.30;99.90
10572;DHT22;5334;48.928;12.704;2023-11-21T05:23:54;6.30;99.90
10572;DHT22;5334;48.928;12.704;2023-11-21T05:26:38;6.30;99.90
10572;DHT22;5334;48.928;12.704;2023-11-21T05:29:22;6.30;99.90
10572;DHT22;5334;48.928;12.704;2023-11-21T05:32:06;6.40;99.90
10572;DHT22;5334;48.928;12.704;2023-11-21T05:34:52;6.40;99.90
10572;DHT22;5334;48.928;12.704;2023-11-21T05:37:36;6.50;99.90
10572;DHT22;5334;48.928;12.704;2023-11-21T05:40:20;6.40;99.90
10572;DHT22;5334;48.928;12.704;2023-11-21T05:43:04;6.40;99.90
10572;DHT22;5334;48.928;12.704;2023-11-21T05:45:48;6.50;99.90
10572;DHT22;5334;48.928;12.704;2023-11-21T05:48:32;6.50;99.90
10572;DHT22;5334;48.928;12.704;2023-11-21T05:51:16;6.50;99.90
10572;DHT22;5334;48.928;12.704;2023-11-21T05:54:00;6.50;99.90
10572;DHT22;5334;48.928;12.704;2023-11-21T05:56:45;6.50;99.90
10572;DHT22;5334;48.928;12.704;2023-11-21T05:59:29;6.50;99.90
10572;DHT22;5334;48.928;12.704;2023-11-21T06:02:13;6.40;99.90
10572;DHT22;5334;48.928;12.704;2023-11-21T06:04:57;6.40;99.90
10572;DHT22;5334;48.928;12.704;2023-11-21T06:07:41;6.50;99.90
10572;DHT22;5334;48.928;12.704;2023-11-21T06:10:25;6.50;99.90
10572;DHT22;5334;48.928;12.704;2023-11-21T06:13:09;6.60;99.90
10572;DHT22;5334;48.928;12.704;2023-11-21T06:15:54;6.60;99.90
10572;DHT22;5334;48.928;12.704;2023-11-21T06:18:38;6.60;99.90
10572;DHT22;5334;48.928;12.704;2023-11-21T06:21:22;6.60;99.90
10572;DHT22;5334;48.928;12.704;2023-11-21T06:24:06;6.60;99.90
10572;DHT22;5334;48.928;12.704;2023-11-21T06:26:50;6.50;99.90
10572;DHT22;5334;48.928;12.704;2023-11-21T06:29:34;6.50;99.90
10572;DHT22;5334;48.928;12.704;2023-11-21T06:32:18;6.60;99.90
10572;DHT22;5334;48.928;12.704;2023-11-21T06:35:03;6.60;99.90
10572;DHT22;5334;48.928;12.704;2023-11-21T06:37:47;6.60;99.90
10572;DHT22;5334;48.928;12.704;2023-11-21T06:40:32;6.70;99.90
10572;DHT22;5334;48.928;12.704;2023-11-21T06:43:16;6.70;99.90
10572;DHT22;5334;48.928;12.704;2023-11-21T06:46:00;6.70;99.90
10572;DHT22;5334;48.928;12.704;2023-11-21T06:48:44;6.70;99.90
10572;DHT22;5334;48.928;12.704;2023-11-21T06:51:28;6.70;99.90
10572;DHT22;5334;48.928;12.704;2023-11-21T06:54:12;6.70;99.90
10572;DHT22;5334;48.928;12.704;2023-11-21T06:56:56;6.70;99.90
10572;DHT22;5334;48.928;12.704;2023-11-21T06:59:40;6.60;99.90
10572;DHT22;5334;48.928;12.704;2023-11-21T07:02:24;6.50;99.90
10572;DHT22;5334;48.928;12.704;2023-11-21T07:05:09;6.50;99.90
10572;DHT22;5334;48.928;12.704;2023-11-21T07:07:53;6.50;99.90
10572;DHT22;5334;48.928;12.704;2023-11-21T07:10:37;6.60;99.90
10572;DHT22;5334;48.928;12.704;2023-11-21T07:13:21;6.60;99.90
10572;DHT22;5334;48.928;12.704;2023-11-21T07:16:06;6.60;99.90
10572;DHT22;5334;48.928;12.704;2023-11-21T07:18:50;6.70;99.90
10572;DHT22;5334;48.928;12.704;2023-11-21T07:21:35;6.70;99.90
10572;DHT22;5334;48.928;12.704;2023-11-21T07:24:19;6.70;99.90
10572;DHT22;5334;48.928;12.704;2023-11-21T07:27:04;6.80;99.90
10572;DHT22;5334;48.928;12.704;2023-11-21T07:29:48;6.80;99.90
10572;DHT22;5334;48.928;12.704;2023-11-21T07:32:32;6.80;99.90
10572;DHT22;5334;48.928;12.704;2023-11-21T07:35:16;6.80;99.90
10572;DHT22;5334;48.928;12.704;2023-11-21T07:38:00;6.80;99.90
10572;DHT22;5334;48.928;12.704;2023-11-21T07:40:44;6.90;99.90
10572;DHT22;5334;48.928;12.704;2023-11-21T07:43:28;6.90;99.90
10572;DHT22;5334;48.928;12.704;2023-11-21T07:46:13;6.90;99.90
10572;DHT22;5334;48.928;12.704;2023-11-21T07:48:57;6.90;99.90
10572;DHT22;5334;48.928;12.704;2023-11-21T07:51:42;6.90;99.90
10572;DHT22;5334;48.928;12.704;2023-11-21T07:54:27;7.00;99.90
10572;DHT22;5334;48.928;12.704;2023-11-21T07:57:11;6.90;99.90
10572;DHT22;5334;48.928;12.704;2023-11-21T07:59:55;6.90;99.90
10572;DHT22;5334;48.928;12.704;2023-11-21T08:02:39;6.90;99.90
10572;DHT22;5334;48.928;12.704;2023-11-21T08:05:24;7.00;99.90
10572;DHT22;5334;48.928;12.704;2023-11-21T08:08:08;7.00;99.90
10572;DHT22;5334;48.928;12.704;2023-11-21T08:10:52;7.00;99.90
10572;DHT22;5334;48.928;12.704;2023-11-21T08:13:37;7.00;99.90
10572;DHT22;5334;48.928;12.704;2023-11-21T08:16:21;7.10;99.90
10572;DHT22;5334;48.928;12.704;2023-11-21T08:19:05;7.20;99.90
10572;DHT22;5334;48.928;12.704;2023-11-21T08:21:49;7.10;99.90
10572;DHT22;5334;48.928;12.704;2023-11-21T08:24:33;7.20;99.90
10572;DHT22;5334;48.928;12.704;2023-11-21T08:27:17;7.20;99.90
10572;DHT22;5334;48.928;12.704;2023-11-21T08:30:03;7.20;99.90
10572;DHT22;5334;48.928;12.704;2023-11-21T08:32:47;7.20;99.90
10572;DHT22;5334;48.928;12.704;2023-11-21T08:35:32;7.30;99.90
10572;DHT22;5334;48.928;12.704;2023-11-21T08:38:16;7.40;99.90
10572;DHT22;5334;48.928;12.704;2023-11-21T08:41:00;7.60;99.90
10572;DHT22;5334;48.928;12.704;2023-11-21T08:43:44;7.60;99.90
10572;DHT22;5334;48.928;12.704;2023-11-21T08:46:28;7.60;99.90
10572;DHT22;5334;48.928;12.704;2023-11-21T08:49:12;7.60;99.90
10572;DHT22;5334;48.928;12.704;2023-11-21T08:51:57;7.60;99.90
10572;DHT22;5334;48.928;12.704;2023-11-21T08:54:41;7.70;99.90
10572;DHT22;5334;48.928;12.704;2023-11-21T08:57:25;7.70;99.90
10572;DHT22;5334;48.928;12.704;2023-11-21T09:00:10;7.70;99.90
10572;DHT22;5334;48.928;12.704;2023-11-21T09:02:54;7.60;99.90
10572;DHT22;5334;48.928;12.704;2023-11-21T09:05:38;7.70;99.90
10572;DHT22;5334;48.928;12.704;2023-11-21T09:08:23;7.70;99.90
10572;DHT22;5334;48.928;12.704;2023-11-21T09:11:07;7.70;99.90
10572;DHT22;5334;48.928;12.704;2023-11-21T09:13:51;7.70;99.90
10572;DHT22;5334;48.928;12.704;2023-11-21T09:16:35;7.70;99.90
10572;DHT22;5334;48.928;12.704;2023-11-21T09:19:19;7.80;99.90
10572;DHT22;5334;48.928;12.704;2023-11-21T09:22:04;7.80;99.90
10572;DHT22;5334;48.928;12.704;2023-11-21T09:24:48;7.90;99.90
10572;DHT22;5334;48.928;12.704;2023-11-21T09:27:32;7.80;99.90
10572;DHT22;5334;48.928;12.704;2023-11-21T09:30:17;7.80;99.90
10572;DHT22;5334;48.928;12.704;2023-11-21T09:33:02;7.70;99.90
10572;DHT22;5334;48.928;12.704;2023-11-21T09:35:46;7.70;99.90
10572;DHT22;5334;48.928;12.704;2023-11-21T09:38:31;7.80;99.90
10572;DHT22;5334;48.928;12.704;2023-11-21T09:41:23;7.70;99.90
10572;DHT22;5334;48.928;12.704;2023-11-21T09:44:13;7.70;99.90
10572;DHT22;5334;48.928;12.704;2023-11-21T09:46:59;7.80;99.90
10572;DHT22;5334;48.928;12.704;2023-11-21T09:49:50;7.80;99.90
10572;DHT22;5334;48.928;12.704;2023-11-21T09:55:53;7.80;99.90
10572;DHT22;5334;48.928;12.704;2023-11-21T09:58:38;7.90;99.90
10572;DHT22;5334;48.928;12.704;2023-11-21T10:01:23;8.00;99.90
10572;DHT22;5334;48.928;12.704;2023-11-21T10:04:09;8.00;99.90
10572;DHT22;5334;48.928;12.704;2023-11-21T10:06:54;8.00;99.90
10572;DHT22;5334;48.928;12.704;2023-11-21T10:09:39;8.10;99.90
10572;DHT22;5334;48.928;12.704;2023-11-21T10:12:24;8.10;99.90
10572;DHT22;5334;48.928;12.704;2023-11-21T10:15:09;8.10;99.90
10572;DHT22;5334;48.928;12.704;2023-11-21T10:17:55;8.10;99.90
10572;DHT22;5334;48.928;12.704;2023-11-21T10:20:59;8.10;99.90
10572;DHT22;5334;48.928;12.704;2023-11-21T10:23:43;8.10;99.90
10572;DHT22;5334;48.928;12.704;2023-11-21T10:26:28;8.10;99.90
10572;DHT22;5334;48.928;12.704;2023-11-21T10:29:14;8.10;99.90
10572;DHT22;5334;48.928;12.704;2023-11-21T10:31:59;8.10;99.90
10572;DHT22;5334;48.928;12.704;2023-11-21T10:34:55;8.10;99.90
10572;DHT22;5334;48.928;12.704;2023-11-21T10:37:40;8.20;99.90
10572;DHT22;5334;48.928;12.704;2023-11-21T10:40:28;8.20;99.90
10572;DHT22;5334;48.928;12.704;2023-11-21T10:43:13;8.20;99.90
10572;DHT22;5334;48.928;12.704;2023-11-21T10:45:58;8.20;99.90
10572;DHT22;5334;48.928;12.704;2023-11-21T10:48:42;8.20;99.90
10572;DHT22;5334;48.928;12.704;2023-11-21T10:51:26;8.20;99.90
10572;DHT22;5334;48.928;12.704;2023-11-21T10:54:10;8.20;99.90
10572;DHT22;5334;48.928;12.704;2023-11-21T10:57:00;8.20;99.90
10572;DHT22;5334;48.928;12.704;2023-11-21T10:59:46;8.20;99.90
10572;DHT22;5334;48.928;12.704;2023-11-21T11:02:31;8.10;99.90
10572;DHT22;5334;48.928;12.704;2023-11-21T11:05:19;8.10;99.90
10572;DHT22;5334;48.928;12.704;2023-11-21T11:08:06;8.10;99.90
10572;DHT22;5334;48.928;12.704;2023-11-21T11:10:52;8.20;99.90
10572;DHT22;5334;48.928;12.704;2023-11-21T11:13:39;8.30;99.90
10572;DHT22;5334;48.928;12.704;2023-11-21T11:16:27;8.30;99.90
10572;DHT22;5334;48.928;12.704;2023-11-21T11:19:12;8.40;99.90
10572;DHT22;5334;48.928;12.704;2023-11-21T11:22:54;8.40;99.90
10572;DHT22;5334;48.928;12.704;2023-11-21T11:28:19;8.60;99.90
10572;DHT22;5334;48.928;12.704;2023-11-21T11:31:37;8.60;99.90
10572;DHT22;5334;48.928;12.704;2023-11-21T11:34:30;8.70;99.90
10572;DHT22;5334;48.928;12.704;2023-11-21T11:37:16;8.80;99.90
10572;DHT22;5334;48.928;12.704;2023-11-21T11:40:00;8.80;99.90
10572;DHT22;5334;48.928;12.704;2023-11-21T11:43:01;8.90;99.90
10572;DHT22;5334;48.928;12.704;2023-11-21T11:45:46;8.90;99.90
10572;DHT22;5334;48.928;12.704;2023-11-21T11:48:35;8.80;99.90
10572;DHT22;5334;48.928;12.704;2023-11-21T11:51:21;8.80;99.90
10572;DHT22;5334;48.928;12.704;2023-11-21T11:54:06;8.80;99.90
10572;DHT22;5334;48.928;12.704;2023-11-21T11:56:52;8.80;99.90
10572;DHT22;5334;48.928;12.704;2023-11-21T12:00:09;8.80;99.90
10572;DHT22;5334;48.928;12.704;2023-11-21T12:02:55;8.80;99.90
10572;DHT22;5334;48.928;12.704;2023-11-21T12:05:40;8.80;99.90
10572;DHT22;5334;48.928;12.704;2023-11-21T12:08:28;8.80;99.90
10572;DHT22;5334;48.928;12.704;2023-11-21T12:11:12;8.80;99.90
10572;DHT22;5334;48.928;12.704;2023-11-21T12:13:57;8.80;99.90
10572;DHT22;5334;48.928;12.704;2023-11-21T12:16:42;8.90;99.90
10572;DHT22;5334;48.928;12.704;2023-11-21T12:19:27;9.00;99.90
10572;DHT22;5334;48.928;12.704;2023-11-21T12:22:11;9.10;99.90
10572;DHT22;5334;48.928;12.704;2023-11-21T12:24:55;9.10;99.90
10572;DHT22;5334;48.928;12.704;2023-11-21T12:27:39;9.20;99.90
10572;DHT22;5334;48.928;12.704;2023-11-21T12:30:25;9.20;99.90
10572;DHT22;5334;48.928;12.704;2023-11-21T12:33:09;9.20;99.90
10572;DHT22;5334;48.928;12.704;2023-11-21T12:35:54;9.30;99.90
10572;DHT22;5334;48.928;12.704;2023-11-21T12:38:38;9.30;99.90
10572;DHT22;5334;48.928;12.704;2023-11-21T12:41:22;9.30;99.90
10572;DHT22;5334;48.928;12.704;2023-11-21T12:44:11;9.30;99.90
10572;DHT22;5334;48.928;12.704;2023-11-21T12:46:56;9.40;99.90
10572;DHT22;5334;48.928;12.704;2023-11-21T12:49:40;9.50;99.90
10572;DHT22;5334;48.928;12.704;2023-11-21T12:52:24;9.40;99.90
10572;DHT22;5334;48.928;12.704;2023-11-21T12:55:10;9.40;99.90
10572;DHT22;5334;48.928;12.704;2023-11-21T12:57:56;9.40;99.90
10572;DHT22;5334;48.928;12.704;2023-11-21T13:00:44;9.40;99.90
10572;DHT22;5334;48.928;12.704;2023-11-21T13:03:28;9.40;99.90
10572;DHT22;5334;48.928;12.704;2023-11-21T13:06:13;9.40;99.90
10572;DHT22;5334;48.928;12.704;2023-11-21T13:08:57;9.50;99.90
10572;DHT22;5334;48.928;12.704;2023-11-21T13:11:41;9.50;99.90
10572;DHT22;5334;48.928;12.704;2023-11-21T13:14:29;9.50;99.90
10572;DHT22;5334;48.928;12.704;2023-11-21T13:17:13;9.40;99.90
10572;DHT22;5334;48.928;12.704;2023-11-21T13:19:58;9.50;99.90
10572;DHT22;5334;48.928;12.704;2023-11-21T13:23:00;9.50;99.90
10572;DHT22;5334;48.928;12.704;2023-11-21T13:25:44;9.40;99.90
10572;DHT22;5334;48.928;12.704;2023-11-21T13:28:28;9.40;99.90
10572;DHT22;5334;48.928;12.704;2023-11-21T13:31:13;9.30;99.90
10572;DHT22;5334;48.928;12.704;2023-11-21T13:33:57;9.30;99.90
10572;DHT22;5334;48.928;12.704;2023-11-21T13:36:41;9.30;99.90
10572;DHT22;5334;48.928;12.704;2023-11-21T13:39:25;9.30;99.90
10572;DHT22;5334;48.928;12.704;2023-11-21T13:42:09;9.20;99.90
10572;DHT22;5334;48.928;12.704;2023-11-21T13:44:57;9.20;99.90
10572;DHT22;5334;48.928;12.704;2023-11-21T13:47:41;9.20;99.90
10572;DHT22;5334;48.928;12.704;2023-11-21T13:50:26;9.10;99.90
10572;DHT22;5334;48.928;12.704;2023-11-21T13:53:10;9.10;99.90
10572;DHT22;5334;48.928;12.704;2023-11-21T13:55:55;9.10;99.90
10572;DHT22;5334;48.928;12.704;2023-11-21T13:58:39;9.10;99.90
10572;DHT22;5334;48.928;12.704;2023-11-21T14:01:25;9.10;99.90
10572;DHT22;5334;48.928;12.704;2023-11-21T14:04:10;9.10;99.90
10572;DHT22;5334;48.928;12.704;2023-11-21T14:06:54;9.00;99.90
10572;DHT22;5334;48.928;12.704;2023-11-21T14:09:38;9.00;99.90
10572;DHT22;5334;48.928;12.704;2023-11-21T14:12:22;9.00;99.90
10572;DHT22;5334;48.928;12.704;2023-11-21T14:15:06;8.90;99.90
10572;DHT22;5334;48.928;12.704;2023-11-21T14:17:51;9.00;99.90
10572;DHT22;5334;48.928;12.704;2023-11-21T14:20:35;8.90;99.90
10572;DHT22;5334;48.928;12.704;2023-11-21T14:23:19;8.90;99.90
10572;DHT22;5334;48.928;12.704;2023-11-21T14:26:03;8.90;99.90
10572;DHT22;5334;48.928;12.704;2023-11-21T14:28:47;8.90;99.90
10572;DHT22;5334;48.928;12.704;2023-11-21T14:31:31;8.90;99.90
10572;DHT22;5334;48.928;12.704;2023-11-21T14:34:15;8.80;99.90
10572;DHT22;5334;48.928;12.704;2023-11-21T14:37:00;8.80;99.90
10572;DHT22;5334;48.928;12.704;2023-11-21T14:39:44;8.70;99.90
10572;DHT22;5334;48.928;12.704;2023-11-21T14:42:28;8.70;99.90
10572;DHT22;5334;48.928;12.704;2023-11-21T14:45:12;8.70;99.90
10572;DHT22;5334;48.928;12.704;2023-11-21T14:47:56;8.70;99.90
10572;DHT22;5334;48.928;12.704;2023-11-21T14:50:40;8.60;99.90
10572;DHT22;5334;48.928;12.704;2023-11-21T14:53:24;8.60;99.90
10572;DHT22;5334;48.928;12.704;2023-11-21T14:56:10;8.60;99.90
10572;DHT22;5334;48.928;12.704;2023-11-21T14:58:54;8.60;99.90
10572;DHT22;5334;48.928;12.704;2023-11-21T15:01:38;8.60;99.90
10572;DHT22;5334;48.928;12.704;2023-11-21T15:04:23;8.60;99.90
10572;DHT22;5334;48.928;12.704;2023-11-21T15:07:07;8.50;99.90
10572;DHT22;5334;48.928;12.704;2023-11-21T15:09:52;8.40;99.90
10572;DHT22;5334;48.928;12.704;2023-11-21T15:12:36;8.40;99.90
10572;DHT22;5334;48.928;12.704;2023-11-21T15:15:20;8.30;99.90
10572;DHT22;5334;48.928;12.704;2023-11-21T15:18:05;8.30;99.90
10572;DHT22;5334;48.928;12.704;2023-11-21T15:20:48;8.30;99.90
10572;DHT22;5334;48.928;12.704;2023-11-21T15:23:33;8.30;99.90
10572;DHT22;5334;48.928;12.704;2023-11-21T15:26:17;8.20;99.90
10572;DHT22;5334;48.928;12.704;2023-11-21T15:29:01;8.10;99.90
10572;DHT22;5334;48.928;12.704;2023-11-21T15:31:45;8.10;99.90
10572;DHT22;5334;48.928;12.704;2023-11-21T15:34:29;8.10;99.90
10572;DHT22;5334;48.928;12.704;2023-11-21T15:37:13;8.20;99.90
10572;DHT22;5334;48.928;12.704;2023-11-21T15:39:57;8.20;99.90
10572;DHT22;5334;48.928;12.704;2023-11-21T15:42:41;8.20;99.90
10572;DHT22;5334;48.928;12.704;2023-11-21T15:45:26;8.10;99.90
10572;DHT22;5334;48.928;12.704;2023-11-21T15:48:10;8.10;99.90
10572;DHT22;5334;48.928;12.704;2023-11-21T15:50:54;8.10;99.90
10572;DHT22;5334;48.928;12.704;2023-11-21T15:53:38;8.00;99.90
10572;DHT22;5334;48.928;12.704;2023-11-21T15:56:22;7.90;99.90
10572;DHT22;5334;48.928;12.704;2023-11-21T15:59:06;7.80;99.90
10572;DHT22;5334;48.928;12.704;2023-11-21T16:01:50;7.80;99.90
10572;DHT22;5334;48.928;12.704;2023-11-21T16:04:34;7.80;99.90
10572;DHT22;5334;48.928;12.704;2023-11-21T16:07:19;7.70;99.90
10572;DHT22;5334;48.928;12.704;2023-11-21T16:10:03;7.60;99.90
10572;DHT22;5334;48.928;12.704;2023-11-21T16:12:47;7.60;99.90
10572;DHT22;5334;48.928;12.704;2023-11-21T16:15:31;7.50;99.90
10572;DHT22;5334;48.928;12.704;2023-11-21T16:18:15;7.50;99.90
10572;DHT22;5334;48.928;12.704;2023-11-21T16:20:59;7.40;99.90
10572;DHT22;5334;48.928;12.704;2023-11-21T16:23:43;7.40;99.90
10572;DHT22;5334;48.928;12.704;2023-11-21T16:26:28;7.40;99.90
10572;DHT22;5334;48.928;12.704;2023-11-21T16:29:12;7.30;99.90
10572;DHT22;5334;48.928;12.704;2023-11-21T16:31:56;7.30;99.90
10572;DHT22;5334;48.928;12.704;2023-11-21T16:34:41;7.20;99.90
10572;DHT22;5334;48.928;12.704;2023-11-21T16:37:25;7.20;99.90
10572;DHT22;5334;48.928;12.704;2023-11-21T16:40:09;7.10;99.90
10572;DHT22;5334;48.928;12.704;2023-11-21T16:42:54;7.10;99.90
10572;DHT22;5334;48.928;12.704;2023-11-21T16:45:38;7.10;99.90
10572;DHT22;5334;48.928;12.704;2023-11-21T16:48:22;7.00;99.90
10572;DHT22;5334;48.928;12.704;2023-11-21T16:51:06;7.00;99.90
10572;DHT22;5334;48.928;12.704;2023-11-21T16:53:50;7.00;99.90
10572;DHT22;5334;48.928;12.704;2023-11-21T16:56:35;7.00;99.90
10572;DHT22;5334;48.928;12.704;2023-11-21T16:59:19;7.10;99.90
10572;DHT22;5334;48.928;12.704;2023-11-21T17:02:03;7.10;99.90
10572;DHT22;5334;48.928;12.704;2023-11-21T17:04:47;7.10;99.90
10572;DHT22;5334;48.928;12.704;2023-11-21T17:07:32;7.20;99.90
10572;DHT22;5334;48.928;12.704;2023-11-21T17:10:16;7.20;99.90
10572;DHT22;5334;48.928;12.704;2023-11-21T17:13:00;7.30;99.90
10572;DHT22;5334;48.928;12.704;2023-11-21T17:15:44;7.30;99.90
10572;DHT22;5334;48.928;12.704;2023-11-21T17:18:29;7.30;99.90
10572;DHT22;5334;48.928;12.704;2023-11-21T17:21:13;7.30;99.90
10572;DHT22;5334;48.928;12.704;2023-11-21T17:23:57;7.30;99.90
10572;DHT22;5334;48.928;12.704;2023-11-21T17:26:43;7.30;99.90
10572;DHT22;5334;48.928;12.704;2023-11-21T17:29:27;7.30;99.90
10572;DHT22;5334;48.928;12.704;2023-11-21T17:32:11;7.30;99.90
10572;DHT22;5334;48.928;12.704;2023-11-21T17:34:55;7.30;99.90
10572;DHT22;5334;48.928;12.704;2023-11-21T17:37:39;7.30;99.90
10572;DHT22;5334;48.928;12.704;2023-11-21T17:40:24;7.30;99.90
10572;DHT22;5334;48.928;12.704;2023-11-21T17:43:08;7.30;99.90
10572;DHT22;5334;48.928;12.704;2023-11-21T17:45:52;7.30;99.90
10572;DHT22;5334;48.928;12.704;2023-11-21T17:48:36;7.20;99.90
10572;DHT22;5334;48.928;12.704;2023-11-21T17:51:21;7.20;99.90